NCAR-RAP Real-Time Weather Data

Output produced by METARs form (06 May 2021  16:16 UTC)
found at http://weather.rap.ucar.edu/surface/
 
KCTB 061556Z AUTO 15013KT 10SM CLR 11/00 A3019 RMK AO2 SLP225 T01110000
KCTB 061456Z AUTO 13012G18KT 10SM CLR 08/00 A3021 RMK AO2 SLP233 T00830000 56003
KCTB 061356Z AUTO 11004KT 10SM CLR 04/M01 A3021 RMK AO2 SLP234 T00441006
KCTB 061256Z AUTO 00000KT 10SM CLR 02/M02 A3021 RMK AO2 SLP238 T00221017
KCTB 061156Z AUTO 13004KT 10SM CLR 02/M02 A3022 RMK AO2 SLP237 T00221017 10067 20006 56007
KCTB 061056Z AUTO 10003KT 10SM CLR 02/M02 A3022 RMK AO2 SLP239 T00171022
KCTB 060956Z AUTO 13008KT 10SM CLR 03/M02 A3023 RMK AO2 SLP241 T00331017
KCTB 060856Z AUTO 12007KT 10SM CLR 03/M03 A3024 RMK AO2 SLP247 T00331028 58005
KCTB 060756Z AUTO 15006KT 10SM CLR 05/M02 A3026 RMK AO2 SLP251 T00501022
KCTB 060656Z AUTO 10005KT 10SM CLR 05/M03 A3025 RMK AO2 SLP251 T00501028 401440006
KCTB 060556Z AUTO 11003KT 10SM CLR 07/M03 A3026 RMK AO2 SLP252 T00671028 10144 20061 50003
KCTB 060456Z AUTO 12006KT 10SM CLR 07/M03 A3026 RMK AO2 SLP256 T00671033
KCTB 060356Z AUTO 07008KT 10SM CLR 08/M03 A3026 RMK AO2 SLP257 T00781033
KCTB 060256Z AUTO 08007KT 10SM CLR 08/M03 A3025 RMK AO2 SLP252 T00831033 53006